| time (UTC) | temp C | wind direction | speed KPH | gust KPH | rain 1hr cm | rain 24hr cm | rain mn cm | humidity % | barometer mb |
| 20260906222204 | 28 | 152 | 1.6 | 1.6 | 0.00 | 0.00 | 0.00 | 24 | 1024.6 |
| 20260906221702 | 28 | 155 | 0.0 | 0.0 | 0.00 | 0.00 | 0.00 | 24 | 1024.8 |
| 20260906221156 | 29 | 182 | 3.2 | 3.2 | 0.00 | 0.00 | 0.00 | 23 | 1024.6 |
| 20260906220652 | 30 | 204 | 6.4 | 8.0 | 0.00 | 0.00 | 0.00 | 23 | 1024.6 |
| 20260906220147 | 30 | 152 | 4.8 | 4.8 | 0.00 | 0.00 | 0.00 | 23 | 1024.9 |
| 20260906215646 | 29 | 175 | 1.6 | 1.6 | 0.00 | 0.00 | 0.00 | 22 | 1025.0 |
| 20260906215145 | 30 | 158 | 1.6 | 1.6 | 0.00 | 0.00 | 0.00 | 23 | 1025.1 |
| 20260906214643 | 30 | 206 | 1.6 | 1.6 | 0.00 | 0.00 | 0.00 | 22 | 1025.1 |
| 20260906214138 | 30 | 145 | 3.2 | 3.2 | 0.00 | 0.00 | 0.00 | 22 | 1025.5 |
| 20260906213638 | 30 | 183 | 1.6 | 3.2 | 0.00 | 0.00 | 0.00 | 22 | 1025.3 |
| 20260906213132 | 28 | 147 | 0.0 | 1.6 | 0.00 | 0.00 | 0.00 | 23 | 1025.6 |
| 20260906212630 | 29 | 153 | 1.6 | 1.6 | 0.00 | 0.00 | 0.00 | 23 | 1025.5 |
| 20260906212126 | 29 | 162 | 1.6 | 1.6 | 0.00 | 0.00 | 0.00 | 23 | 1025.5 |
| 20260906211625 | 28 | 227 | 4.8 | 4.8 | 0.00 | 0.00 | 0.00 | 23 | 1025.8 |
| 20260906211120 | 28 | 173 | 1.6 | 1.6 | 0.00 | 0.00 | 0.00 | 23 | 1025.6 |
| 20260906210616 | 29 | 154 | 0.0 | 0.0 | 0.00 | 0.00 | 0.00 | 22 | 1025.8 |
| 20260906210111 | 28 | 188 | 4.8 | 8.0 | 0.00 | 0.00 | 0.00 | 23 | 1025.9 |
| 20260906205606 | 27 | 158 | 3.2 | 3.2 | 0.00 | 0.00 | 0.00 | 24 | 1025.9 |
| 20260906205103 | 28 | 116 | 3.2 | 4.8 | 0.00 | 0.00 | 0.00 | 23 | 1026.0 |
| 20260906204601 | 28 | 179 | 3.2 | 3.2 | 0.00 | 0.00 | 0.00 | 23 | 1026.2 |
| 20260906204056 | 29 | 170 | 1.6 | 3.2 | 0.00 | 0.00 | 0.00 | 23 | 1025.9 |
| 20260906203556 | 28 | 163 | 1.6 | 1.6 | 0.00 | 0.00 | 0.00 | 24 | 1026.3 |
| 20260906203051 | 28 | 155 | 0.0 | 1.6 | 0.00 | 0.00 | 0.00 | 24 | 1026.4 |
| 20260906202548 | 28 | 208 | 4.8 | 8.0 | 0.00 | 0.00 | 0.00 | 24 | 1026.4 |
| 20260906202047 | 28 | 146 | 1.6 | 3.2 | 0.00 | 0.00 | 0.00 | 24 | 1026.5 |
| 20260906201542 | 30 | 207 | 4.8 | 4.8 | 0.00 | 0.00 | 0.00 | 23 | 1026.3 |
| 20260906201042 | 30 | 180 | 3.2 | 3.2 | 0.00 | 0.00 | 0.00 | 22 | 1026.4 |
| 20260906200538 | 30 | 129 | 4.8 | 8.0 | 0.00 | 0.00 | 0.00 | 23 | 1026.4 |
| 20260906200034 | 30 | 301 | 3.2 | 3.2 | 0.00 | 0.00 | 0.00 | 22 | 1026.5 |
| 20260906195529 | 29 | 216 | 3.2 | 3.2 | 0.00 | 0.00 | 0.00 | 23 | 1026.4 |
| 20260906195025 | 28 | 101 | 0.0 | 1.6 | 0.00 | 0.00 | 0.00 | 23 | 1026.7 |
| 20260906194521 | 28 | 171 | 1.6 | 3.2 | 0.00 | 0.00 | 0.00 | 24 | 1026.7 |
| 20260906194016 | 28 | 258 | 3.2 | 4.8 | 0.00 | 0.00 | 0.00 | 24 | 1026.9 |
| 20260906193516 | 27 | 176 | 1.6 | 1.6 | 0.00 | 0.00 | 0.00 | 23 | 1026.8 |
| 20260906193011 | 27 | 184 | 1.6 | 3.2 | 0.00 | 0.00 | 0.00 | 24 | 1027.0 |
| 20260906192507 | 28 | 184 | 6.4 | 9.7 | 0.00 | 0.00 | 0.00 | 23 | 1026.9 |
| 20260906192005 | 27 | 174 | 3.2 | 3.2 | 0.00 | 0.00 | 0.00 | 24 | 1026.8 |
| 20260906191501 | 28 | 211 | 3.2 | 3.2 | 0.00 | 0.00 | 0.00 | 24 | 1027.2 |
| 20260906191000 | 27 | 142 | 0.0 | 0.0 | 0.00 | 0.00 | 0.00 | 24 | 1027.0 |
| 20260906190459 | 27 | 157 | 4.8 | 4.8 | 0.00 | 0.00 | 0.00 | 25 | 1027.4 |
| 20260906185954 | 27 | 190 | 4.8 | 4.8 | 0.00 | 0.00 | 0.00 | 25 | 1027.0 |
| 20260906185453 | 27 | 163 | 0.0 | 1.6 | 0.00 | 0.00 | 0.00 | 25 | 1027.4 |
| 20260906184952 | 27 | 159 | 4.8 | 4.8 | 0.00 | 0.00 | 0.00 | 24 | 1027.4 |
| 20260906184448 | 27 | 161 | 1.6 | 1.6 | 0.00 | 0.00 | 0.00 | 24 | 1027.3 |
| 20260906183943 | 28 | 232 | 3.2 | 4.8 | 0.00 | 0.00 | 0.00 | 24 | 1027.4 |
| 20260906183439 | 26 | 178 | 1.6 | 1.6 | 0.00 | 0.00 | 0.00 | 24 | 1027.5 |
| 20260906182934 | 26 | 238 | 4.8 | 4.8 | 0.00 | 0.00 | 0.00 | 25 | 1027.7 |
| 20260906182430 | 27 | 260 | 8.0 | 9.7 | 0.00 | 0.00 | 0.00 | 25 | 1027.8 |
| 20260906181925 | 27 | 50 | 3.2 | 3.2 | 0.00 | 0.00 | 0.00 | 24 | 1027.8 |
| 20260906181421 | 26 | 167 | 3.2 | 3.2 | 0.00 | 0.00 | 0.00 | 25 | 1027.7 |
| 20260906180917 | 26 | 196 | 3.2 | 3.2 | 0.00 | 0.00 | 0.00 | 26 | 1027.8 |
| 20260906180411 | 26 | 133 | 4.8 | 8.0 | 0.00 | 0.00 | 0.00 | 26 | 1028.2 |
| 20260906175909 | 26 | 251 | 3.2 | 3.2 | 0.00 | 0.00 | 0.00 | 26 | 1028.2 |
| 20260906175404 | 26 | 189 | 1.6 | 4.8 | 0.00 | 0.00 | 0.00 | 27 | 1028.2 |
| 20260906174903 | 26 | 162 | 1.6 | 1.6 | 0.00 | 0.00 | 0.00 | 25 | 1028.1 |
| 20260906174402 | 26 | 153 | 0.0 | 1.6 | 0.00 | 0.00 | 0.00 | 26 | 1028.2 |
| 20260906173857 | 25 | 200 | 4.8 | 4.8 | 0.00 | 0.00 | 0.00 | 26 | 1028.4 |
| 20260906173353 | 26 | 221 | 3.2 | 3.2 | 0.00 | 0.00 | 0.00 | 27 | 1028.3 |
| 20260906172852 | 26 | 257 | 4.8 | 8.0 | 0.00 | 0.00 | 0.00 | 26 | 1028.2 |
| 20260906172348 | 26 | 130 | 1.6 | 1.6 | 0.00 | 0.00 | 0.00 | 27 | 1028.3 |
| 20260906171843 | 25 | 130 | 3.2 | 3.2 | 0.00 | 0.00 | 0.00 | 28 | 1028.6 |
| 20260906171338 | 25 | 159 | 1.6 | 1.6 | 0.00 | 0.00 | 0.00 | 28 | 1028.7 |
| 20260906170833 | 25 | 143 | 1.6 | 3.2 | 0.00 | 0.00 | 0.00 | 27 | 1028.6 |
| 20260906170330 | 25 | 164 | 1.6 | 1.6 | 0.00 | 0.00 | 0.00 | 31 | 1028.6 |
| 20260906165826 | 25 | 194 | 6.4 | 8.0 | 0.00 | 0.00 | 0.00 | 30 | 1028.6 |
| 20260906165324 | 25 | 145 | 1.6 | 1.6 | 0.00 | 0.00 | 0.00 | 30 | 1028.7 |
| 20260906164820 | 25 | 171 | 1.6 | 1.6 | 0.00 | 0.00 | 0.00 | 32 | 1028.7 |
| 20260906164319 | 24 | 197 | 3.2 | 3.2 | 0.00 | 0.00 | 0.00 | 32 | 1028.7 |
| 20260906163815 | 23 | 157 | 0.0 | 1.6 | 0.00 | 0.00 | 0.00 | 33 | 1028.6 |
| 20260906163311 | 23 | 158 | 1.6 | 1.6 | 0.00 | 0.00 | 0.00 | 34 | 1028.7 |
| 20260906162808 | 23 | 157 | 1.6 | 1.6 | 0.00 | 0.00 | 0.00 | 34 | 1028.8 |
| 20260906162307 | 23 | 161 | 1.6 | 1.6 | 0.00 | 0.00 | 0.00 | 36 | 1028.7 |
| 20260906161803 | 23 | 179 | 3.2 | 3.2 | 0.00 | 0.00 | 0.00 | 37 | 1028.7 |
| 20260906161301 | 22 | 166 | 3.2 | 3.2 | 0.00 | 0.00 | 0.00 | 39 | 1028.6 |
| 20260906160801 | 22 | 153 | 0.0 | 1.6 | 0.00 | 0.00 | 0.00 | 40 | 1028.7 |
| 20260906160255 | 22 | 175 | 1.6 | 3.2 | 0.00 | 0.00 | 0.00 | 41 | 1028.7 |
| 20260906155753 | 22 | 160 | 0.0 | 0.0 | 0.00 | 0.00 | 0.00 | 40 | 1028.7 |
| 20260906155248 | 22 | 177 | 1.6 | 1.6 | 0.00 | 0.00 | 0.00 | 39 | 1028.9 |
| 20260906154743 | 23 | 148 | 3.2 | 3.2 | 0.00 | 0.00 | 0.00 | 39 | 1028.7 |
| 20260906154238 | 23 | 156 | 0.0 | 1.6 | 0.00 | 0.00 | 0.00 | 40 | 1028.8 |
| 20260906153737 | 22 | 145 | 1.6 | 1.6 | 0.00 | 0.00 | 0.00 | 42 | 1028.6 |
| 20260906153231 | 22 | 162 | 0.0 | 1.6 | 0.00 | 0.00 | 0.00 | 42 | 1028.7 |
| 20260906152727 | 22 | 146 | 0.0 | 0.0 | 0.00 | 0.00 | 0.00 | 41 | 1028.6 |
| 20260906152221 | 21 | 159 | 3.2 | 3.2 | 0.00 | 0.00 | 0.00 | 42 | 1028.7 |
| 20260906151721 | 22 | 164 | 3.2 | 3.2 | 0.00 | 0.00 | 0.00 | 42 | 1028.8 |
| 20260906151217 | 21 | 153 | 0.0 | 0.0 | 0.00 | 0.00 | 0.00 | 42 | 1028.9 |
| 20260906150712 | 21 | 161 | 1.6 | 3.2 | 0.00 | 0.00 | 0.00 | 42 | 1028.8 |
| 20260906150207 | 21 | 143 | 1.6 | 1.6 | 0.00 | 0.00 | 0.00 | 42 | 1028.7 |
| 20260906145706 | 21 | 180 | 1.6 | 1.6 | 0.00 | 0.00 | 0.00 | 43 | 1028.8 |
| 20260906145206 | 21 | 169 | 1.6 | 3.2 | 0.00 | 0.00 | 0.00 | 44 | 1028.4 |
| 20260906144700 | 20 | 187 | 3.2 | 3.2 | 0.00 | 0.00 | 0.00 | 45 | 1028.6 |
| 20260906144155 | 20 | 153 | 1.6 | 1.6 | 0.00 | 0.00 | 0.00 | 45 | 1028.7 |
| 20260906143655 | 20 | 155 | 0.0 | 0.0 | 0.00 | 0.00 | 0.00 | 44 | 1028.7 |
| 20260906143152 | 20 | 152 | 0.0 | 0.0 | 0.00 | 0.00 | 0.00 | 44 | 1028.3 |
| 20260906142652 | 19 | 163 | 0.0 | 1.6 | 0.00 | 0.00 | 0.00 | 47 | 1028.3 |
| 20260906142147 | 20 | 130 | 0.0 | 0.0 | 0.00 | 0.00 | 0.00 | 49 | 1028.3 |
| 20260906141645 | 18 | 142 | 0.0 | 0.0 | 0.00 | 0.00 | 0.00 | 52 | 1028.2 |
| 20260906141141 | 18 | 142 | 0.0 | 0.0 | 0.00 | 0.00 | 0.00 | 53 | 1028.2 |
| 20260906140640 | 16 | 145 | 0.0 | 0.0 | 0.00 | 0.00 | 0.00 | 56 | 1028.4 |
| 20260906140135 | 16 | 134 | 0.0 | 0.0 | 0.00 | 0.00 | 0.00 | 59 | 1028.4 |
| 20260906135632 | 15 | 134 | 0.0 | 0.0 | 0.00 | 0.00 | 0.00 | 60 | 1028.4 |
| 20260906135128 | 14 | 124 | 0.0 | 1.6 | 0.00 | 0.00 | 0.00 | 62 | 1028.4 |
| 20260906134623 | 13 | 119 | 1.6 | 1.6 | 0.00 | 0.00 | 0.00 | 64 | 1028.2 |
| 20260906134118 | 12 | 119 | 0.0 | 1.6 | 0.00 | 0.00 | 0.00 | 68 | 1028.2 |
| 20260906133614 | 11 | 119 | 1.6 | 1.6 | 0.00 | 0.00 | 0.00 | 69 | 1028.1 |
| 20260906133109 | 11 | 118 | 0.0 | 1.6 | 0.00 | 0.00 | 0.00 | 70 | 1027.9 |
| 20260906132604 | 11 | 118 | 0.0 | 0.0 | 0.00 | 0.00 | 0.00 | 71 | 1028.1 |
| 20260906132059 | 11 | 119 | 0.0 | 0.0 | 0.00 | 0.00 | 0.00 | 71 | 1027.7 |
| 20260906131555 | 11 | 119 | 0.0 | 0.0 | 0.00 | 0.00 | 0.00 | 71 | 1028.1 |
| 20260906131050 | 11 | 124 | 1.6 | 1.6 | 0.00 | 0.00 | 0.00 | 71 | 1027.5 |
| 20260906130550 | 11 | 112 | 0.0 | 0.0 | 0.00 | 0.00 | 0.00 | 68 | 1027.7 |
| 20260906130045 | 11 | 82 | 1.6 | 1.6 | 0.00 | 0.00 | 0.00 | 68 | 1027.4 |
| 20260906125543 | 12 | 81 | 1.6 | 1.6 | 0.00 | 0.00 | 0.00 | 68 | 1027.5 |
| 20260906125042 | 12 | 80 | 1.6 | 3.2 | 0.00 | 0.00 | 0.00 | 67 | 1027.5 |
| 20260906124538 | 11 | 80 | 1.6 | 1.6 | 0.00 | 0.00 | 0.00 | 68 | 1027.4 |
| 20260906124033 | 11 | 80 | 1.6 | 1.6 | 0.00 | 0.00 | 0.00 | 70 | 1027.2 |
| 20260906123532 | 11 | 80 | 1.6 | 1.6 | 0.00 | 0.00 | 0.00 | 70 | 1027.3 |
| 20260906123027 | 11 | 80 | 1.6 | 1.6 | 0.00 | 0.00 | 0.00 | 69 | 1027.2 |
| 20260906122521 | 11 | 80 | 1.6 | 1.6 | 0.00 | 0.00 | 0.00 | 69 | 1027.4 |
| 20260906122018 | 11 | 80 | 1.6 | 1.6 | 0.00 | 0.00 | 0.00 | 69 | 1027.3 |
| 20260906121513 | 11 | 80 | 1.6 | 1.6 | 0.00 | 0.00 | 0.00 | 69 | 1027.2 |
| 20260906121009 | 12 | 80 | 1.6 | 1.6 | 0.00 | 0.00 | 0.00 | 68 | 1027.3 |
| 20260906120504 | 11 | 80 | 1.6 | 1.6 | 0.00 | 0.00 | 0.00 | 68 | 1027.4 |
| 20260906120001 | 11 | 96 | 1.6 | 1.6 | 0.00 | 0.00 | 0.00 | 69 | 1027.3 |
| 20260906115456 | 11 | 101 | 1.6 | 1.6 | 0.00 | 0.00 | 0.00 | 69 | 1027.5 |
| 20260906114956 | 11 | 101 | 1.6 | 1.6 | 0.00 | 0.00 | 0.00 | 69 | 1027.3 |
| 20260906114450 | 11 | 101 | 1.6 | 1.6 | 0.00 | 0.00 | 0.00 | 69 | 1027.3 |
| 20260906113947 | 11 | 101 | 1.6 | 1.6 | 0.00 | 0.00 | 0.00 | 69 | 1027.4 |
| 20260906113445 | 11 | 101 | 1.6 | 1.6 | 0.00 | 0.00 | 0.00 | 68 | 1027.4 |
| 20260906112941 | 11 | 101 | 1.6 | 1.6 | 0.00 | 0.00 | 0.00 | 68 | 1027.5 |
| 20260906112436 | 11 | 101 | 1.6 | 1.6 | 0.00 | 0.00 | 0.00 | 68 | 1027.4 |
| 20260906111932 | 11 | 101 | 1.6 | 1.6 | 0.00 | 0.00 | 0.00 | 68 | 1027.5 |
| 20260906111431 | 12 | 101 | 1.6 | 1.6 | 0.00 | 0.00 | 0.00 | 66 | 1027.9 |
| 20260906110926 | 12 | 101 | 1.6 | 3.2 | 0.00 | 0.00 | 0.00 | 67 | 1027.5 |
| 20260906110421 | 12 | 101 | 1.6 | 1.6 | 0.00 | 0.00 | 0.00 | 67 | 1027.5 |
| 20260906105920 | 12 | 101 | 1.6 | 1.6 | 0.00 | 0.00 | 0.00 | 67 | 1027.5 |
| 20260906105416 | 12 | 101 | 1.6 | 1.6 | 0.00 | 0.00 | 0.00 | 66 | 1027.7 |
| 20260906104912 | 12 | 101 | 1.6 | 1.6 | 0.00 | 0.00 | 0.00 | 66 | 1027.3 |
| 20260906104410 | 11 | 101 | 1.6 | 1.6 | 0.00 | 0.00 | 0.00 | 67 | 1027.7 |
| 20260906103909 | 11 | 101 | 1.6 | 1.6 | 0.00 | 0.00 | 0.00 | 67 | 1027.5 |
| 20260906103408 | 11 | 101 | 1.6 | 1.6 | 0.00 | 0.00 | 0.00 | 67 | 1027.4 |
| 20260906102904 | 11 | 101 | 1.6 | 1.6 | 0.00 | 0.00 | 0.00 | 67 | 1027.5 |
| 20260906102403 | 11 | 101 | 1.6 | 1.6 | 0.00 | 0.00 | 0.00 | 67 | 1027.4 |
| 20260906101858 | 11 | 101 | 1.6 | 1.6 | 0.00 | 0.00 | 0.00 | 66 | 1027.2 |
| 20260906101353 | 12 | 101 | 1.6 | 1.6 | 0.00 | 0.00 | 0.00 | 66 | 1027.2 |
| 20260906100848 | 12 | 101 | 1.6 | 1.6 | 0.00 | 0.00 | 0.00 | 66 | 1027.5 |
| 20260906100348 | 12 | 105 | 1.6 | 1.6 | 0.00 | 0.00 | 0.00 | 66 | 1027.3 |
| 20260906095843 | 12 | 106 | 1.6 | 1.6 | 0.00 | 0.00 | 0.00 | 66 | 1027.3 |
| 20260906095339 | 12 | 106 | 1.6 | 1.6 | 0.00 | 0.00 | 0.00 | 65 | 1027.2 |
| 20260906094838 | 12 | 106 | 1.6 | 1.6 | 0.00 | 0.00 | 0.00 | 66 | 1027.3 |
| 20260906094333 | 12 | 106 | 1.6 | 1.6 | 0.00 | 0.00 | 0.00 | 65 | 1027.0 |
| 20260906093829 | 12 | 106 | 0.0 | 1.6 | 0.00 | 0.00 | 0.00 | 65 | 1027.3 |
| 20260906093325 | 12 | 106 | 1.6 | 1.6 | 0.00 | 0.00 | 0.00 | 66 | 1027.3 |
| 20260906092820 | 12 | 106 | 1.6 | 1.6 | 0.00 | 0.00 | 0.00 | 65 | 1027.3 |
| 20260906092319 | 12 | 106 | 1.6 | 1.6 | 0.00 | 0.00 | 0.00 | 64 | 1027.2 |
| 20260906091815 | 12 | 106 | 1.6 | 1.6 | 0.00 | 0.00 | 0.00 | 64 | 1027.4 |
| 20260906091312 | 12 | 106 | 1.6 | 1.6 | 0.00 | 0.00 | 0.00 | 64 | 1027.0 |
| 20260906090808 | 13 | 106 | 1.6 | 1.6 | 0.00 | 0.00 | 0.00 | 63 | 1027.0 |
| 20260906090307 | 13 | 106 | 0.0 | 1.6 | 0.00 | 0.00 | 0.00 | 63 | 1027.3 |
| 20260906085806 | 13 | 106 | 1.6 | 1.6 | 0.00 | 0.00 | 0.00 | 62 | 1027.3 |
| 20260906085259 | 13 | 106 | 0.0 | 0.0 | 0.00 | 0.00 | 0.00 | 62 | 1027.0 |
| 20260906084755 | 13 | 106 | 1.6 | 1.6 | 0.00 | 0.00 | 0.00 | 62 | 1027.0 |
| 20260906084254 | 13 | 106 | 1.6 | 1.6 | 0.00 | 0.00 | 0.00 | 63 | 1027.2 |
| 20260906083749 | 13 | 106 | 1.6 | 1.6 | 0.00 | 0.00 | 0.00 | 62 | 1026.9 |
| 20260906083245 | 13 | 106 | 1.6 | 1.6 | 0.00 | 0.00 | 0.00 | 62 | 1027.3 |
| 20260906082739 | 14 | 106 | 0.0 | 0.0 | 0.00 | 0.00 | 0.00 | 60 | 1027.2 |
| 20260906082234 | 13 | 106 | 1.6 | 1.6 | 0.00 | 0.00 | 0.00 | 61 | 1027.2 |
| 20260906081730 | 15 | 106 | 1.6 | 1.6 | 0.00 | 0.00 | 0.00 | 58 | 1027.3 |
| 20260906081225 | 16 | 106 | 0.0 | 1.6 | 0.00 | 0.00 | 0.00 | 55 | 1027.5 |
| 20260906080722 | 15 | 127 | 1.6 | 1.6 | 0.00 | 0.00 | 0.00 | 57 | 1027.4 |
| 20260906080218 | 16 | 136 | 0.0 | 0.0 | 0.00 | 0.00 | 0.00 | 55 | 1027.4 |
| 20260906075712 | 15 | 108 | 1.6 | 3.2 | 0.00 | 0.00 | 0.00 | 58 | 1027.2 |
| 20260906075206 | 15 | 126 | 0.0 | 1.6 | 0.00 | 0.00 | 0.00 | 58 | 1027.4 |
| 20260906074702 | 15 | 90 | 4.8 | 8.0 | 0.00 | 0.00 | 0.00 | 59 | 1027.4 |
| 20260906074201 | 13 | 124 | 1.6 | 1.6 | 0.00 | 0.00 | 0.00 | 61 | 1027.5 |
| 20260906073656 | 13 | 89 | 0.0 | 1.6 | 0.00 | 0.00 | 0.00 | 62 | 1027.5 |
| 20260906073151 | 13 | 89 | 0.0 | 1.6 | 0.00 | 0.00 | 0.00 | 61 | 1027.2 |
| 20260906072646 | 15 | 89 | 1.6 | 1.6 | 0.00 | 0.00 | 0.00 | 60 | 1027.7 |
| 20260906072136 | 13 | 89 | 0.0 | 1.6 | 0.00 | 0.00 | 0.00 | 61 | 1027.5 |
| 20260906071632 | 13 | 88 | 1.6 | 1.6 | 0.00 | 0.00 | 0.00 | 63 | 1027.4 |
| 20260906071132 | 13 | 88 | 0.0 | 1.6 | 0.00 | 0.00 | 0.00 | 62 | 1027.0 |
| 20260906070629 | 13 | 88 | 0.0 | 1.6 | 0.00 | 0.00 | 0.00 | 62 | 1027.2 |
| 20260906070124 | 13 | 88 | 1.6 | 1.6 | 0.00 | 0.00 | 0.00 | 62 | 1027.4 |
| 20260906065624 | 13 | 88 | 1.6 | 1.6 | 0.00 | 0.00 | 0.00 | 62 | 1027.4 |
| 20260906065119 | 14 | 88 | 0.0 | 1.6 | 0.00 | 0.00 | 0.00 | 62 | 1027.2 |
| 20260906064615 | 13 | 88 | 1.6 | 3.2 | 0.00 | 0.00 | 0.00 | 62 | 1027.3 |
| 20260906064110 | 14 | 88 | 0.0 | 0.0 | 0.00 | 0.00 | 0.00 | 60 | 1027.4 |
| 20260906063605 | 14 | 88 | 1.6 | 1.6 | 0.00 | 0.00 | 0.00 | 60 | 1027.0 |
| 20260906063101 | 14 | 88 | 0.0 | 0.0 | 0.00 | 0.00 | 0.00 | 60 | 1027.3 |
| 20260906062556 | 15 | 88 | 0.0 | 0.0 | 0.00 | 0.00 | 0.00 | 60 | 1027.3 |
| 20260906062055 | 15 | 88 | 1.6 | 1.6 | 0.00 | 0.00 | 0.00 | 59 | 1027.3 |
| 20260906061552 | 15 | 88 | 0.0 | 1.6 | 0.00 | 0.00 | 0.00 | 59 | 1027.3 |
| 20260906061051 | 15 | 88 | 0.0 | 0.0 | 0.00 | 0.00 | 0.00 | 58 | 1027.2 |
| 20260906060548 | 15 | 88 | 0.0 | 1.6 | 0.00 | 0.00 | 0.00 | 59 | 1027.3 |
| 20260906060044 | 15 | 88 | 0.0 | 1.6 | 0.00 | 0.00 | 0.00 | 58 | 1027.0 |
| 20260906055540 | 16 | 88 | 1.6 | 1.6 | 0.00 | 0.00 | 0.00 | 57 | 1027.4 |
| 20260906055036 | 16 | 129 | 0.0 | 1.6 | 0.00 | 0.00 | 0.00 | 56 | 1027.2 |
| 20260906054535 | 16 | 138 | 0.0 | 0.0 | 0.00 | 0.00 | 0.00 | 56 | 1027.3 |
| 20260906054031 | 16 | 132 | 1.6 | 1.6 | 0.00 | 0.00 | 0.00 | 55 | 1027.0 |
| 20260906053527 | 16 | 138 | 0.0 | 1.6 | 0.00 | 0.00 | 0.00 | 53 | 1027.3 |
| 20260906053022 | 16 | 126 | 0.0 | 1.6 | 0.00 | 0.00 | 0.00 | 56 | 1027.3 |
| 20260906052518 | 15 | 120 | 1.6 | 1.6 | 0.00 | 0.00 | 0.00 | 56 | 1027.3 |
| 20260906052015 | 16 | 126 | 1.6 | 1.6 | 0.00 | 0.00 | 0.00 | 56 | 1027.3 |
| 20260906051510 | 15 | 121 | 0.0 | 1.6 | 0.00 | 0.00 | 0.00 | 55 | 1027.4 |
| 20260906051006 | 15 | 120 | 1.6 | 1.6 | 0.00 | 0.00 | 0.00 | 56 | 1027.0 |
| 20260906050500 | 15 | 121 | 1.6 | 1.6 | 0.00 | 0.00 | 0.00 | 57 | 1027.0 |
| 20260906050000 | 15 | 123 | 0.0 | 0.0 | 0.00 | 0.00 | 0.00 | 56 | 1026.8 |
| 20260906045458 | 15 | 119 | 1.6 | 1.6 | 0.00 | 0.00 | 0.00 | 55 | 1026.9 |
| 20260906044955 | 15 | 121 | 0.0 | 1.6 | 0.00 | 0.00 | 0.00 | 56 | 1027.2 |
| 20260906044449 | 15 | 123 | 1.6 | 1.6 | 0.00 | 0.00 | 0.00 | 56 | 1027.3 |
| 20260906043945 | 16 | 143 | 0.0 | 0.0 | 0.00 | 0.00 | 0.00 | 56 | 1027.2 |
| 20260906043441 | 15 | 123 | 1.6 | 3.2 | 0.00 | 0.00 | 0.00 | 55 | 1027.3 |
| 20260906042937 | 15 | 128 | 0.0 | 1.6 | 0.00 | 0.00 | 0.00 | 55 | 1027.2 |
| 20260906042436 | 16 | 106 | 1.6 | 1.6 | 0.00 | 0.00 | 0.00 | 55 | 1027.2 |
| 20260906041931 | 16 | 126 | 0.0 | 1.6 | 0.00 | 0.00 | 0.00 | 54 | 1027.2 |
| 20260906041427 | 16 | 130 | 3.2 | 3.2 | 0.00 | 0.00 | 0.00 | 54 | 1027.2 |
| 20260906040926 | 16 | 126 | 1.6 | 1.6 | 0.00 | 0.00 | 0.00 | 53 | 1027.3 |
| 20260906040422 | 17 | 121 | 1.6 | 1.6 | 0.00 | 0.00 | 0.00 | 52 | 1026.8 |
| 20260906035917 | 17 | 107 | 1.6 | 1.6 | 0.00 | 0.00 | 0.00 | 52 | 1026.9 |
| 20260906035412 | 17 | 132 | 0.0 | 1.6 | 0.00 | 0.00 | 0.00 | 52 | 1026.9 |
| 20260906034908 | 17 | 127 | 0.0 | 1.6 | 0.00 | 0.00 | 0.00 | 52 | 1026.9 |
| 20260906034402 | 17 | 132 | 0.0 | 1.6 | 0.00 | 0.00 | 0.00 | 52 | 1026.8 |
| 20260906033858 | 17 | 132 | 0.0 | 0.0 | 0.00 | 0.00 | 0.00 | 51 | 1026.9 |
| 20260906033357 | 17 | 136 | 0.0 | 0.0 | 0.00 | 0.00 | 0.00 | 51 | 1026.8 |
| 20260906032853 | 18 | 125 | 1.6 | 1.6 | 0.00 | 0.00 | 0.00 | 50 | 1026.8 |
| 20260906032349 | 17 | 133 | 0.0 | 0.0 | 0.00 | 0.00 | 0.00 | 50 | 1026.7 |
| 20260906031844 | 18 | 128 | 1.6 | 1.6 | 0.00 | 0.00 | 0.00 | 48 | 1026.5 |
| 20260906031339 | 18 | 117 | 1.6 | 1.6 | 0.00 | 0.00 | 0.00 | 49 | 1026.5 |
| 20260906030839 | 18 | 128 | 0.0 | 0.0 | 0.00 | 0.00 | 0.00 | 49 | 1026.4 |
| 20260906030335 | 18 | 125 | 1.6 | 1.6 | 0.00 | 0.00 | 0.00 | 49 | 1026.5 |
| 20260906025829 | 18 | 123 | 1.6 | 3.2 | 0.00 | 0.00 | 0.00 | 47 | 1026.5 |
| 20260906025323 | 19 | 134 | 0.0 | 1.6 | 0.00 | 0.00 | 0.00 | 48 | 1026.5 |
| 20260906024822 | 19 | 124 | 0.0 | 1.6 | 0.00 | 0.00 | 0.00 | 47 | 1026.4 |
| 20260906024321 | 19 | 129 | 1.6 | 1.6 | 0.00 | 0.00 | 0.00 | 46 | 1026.4 |
| 20260906023817 | 19 | 132 | 0.0 | 1.6 | 0.00 | 0.00 | 0.00 | 47 | 1026.2 |
| 20260906023312 | 19 | 129 | 0.0 | 0.0 | 0.00 | 0.00 | 0.00 | 48 | 1026.3 |
| 20260906022808 | 19 | 132 | 0.0 | 1.6 | 0.00 | 0.00 | 0.00 | 47 | 1026.4 |
| 20260906022306 | 20 | 127 | 0.0 | 1.6 | 0.00 | 0.00 | 0.00 | 47 | 1026.3 |
| 20260906021759 | 20 | 125 | 1.6 | 1.6 | 0.00 | 0.00 | 0.00 | 46 | 1026.0 |
| 20260906021258 | 19 | 131 | 0.0 | 1.6 | 0.00 | 0.00 | 0.00 | 48 | 1026.0 |
| 20260906020753 | 20 | 134 | 0.0 | 0.0 | 0.00 | 0.00 | 0.00 | 48 | 1026.3 |
| 20260906020252 | 20 | 134 | 1.6 | 1.6 | 0.00 | 0.00 | 0.00 | 47 | 1026.0 |
| 20260906015747 | 20 | 135 | 0.0 | 0.0 | 0.00 | 0.00 | 0.00 | 47 | 1025.9 |
| 20260906015245 | 20 | 122 | 1.6 | 1.6 | 0.00 | 0.00 | 0.00 | 46 | 1026.2 |
| 20260906014740 | 20 | 129 | 0.0 | 0.0 | 0.00 | 0.00 | 0.00 | 46 | 1026.0 |
| 20260906014236 | 21 | 128 | 0.0 | 0.0 | 0.00 | 0.00 | 0.00 | 46 | 1025.9 |
| 20260906013732 | 21 | 126 | 0.0 | 0.0 | 0.00 | 0.00 | 0.00 | 45 | 1026.2 |
| 20260906013231 | 21 | 140 | 1.6 | 1.6 | 0.00 | 0.00 | 0.00 | 44 | 1025.9 |
| 20260906012726 | 22 | 141 | 0.0 | 0.0 | 0.00 | 0.00 | 0.00 | 43 | 1025.8 |
| 20260906012222 | 22 | 141 | 0.0 | 0.0 | 0.00 | 0.00 | 0.00 | 42 | 1025.9 |
| 20260906011717 | 23 | 142 | 0.0 | 0.0 | 0.00 | 0.00 | 0.00 | 41 | 1025.4 |
| 20260906011211 | 23 | 142 | 0.0 | 0.0 | 0.00 | 0.00 | 0.00 | 40 | 1025.9 |
| 20260906010707 | 23 | 141 | 0.0 | 0.0 | 0.00 | 0.00 | 0.00 | 40 | 1025.8 |
| 20260906010203 | 23 | 135 | 1.6 | 1.6 | 0.00 | 0.00 | 0.00 | 40 | 1025.8 |
| 20260906005703 | 23 | 147 | 0.0 | 0.0 | 0.00 | 0.00 | 0.00 | 40 | 1025.6 |
| 20260906005203 | 24 | 171 | 0.0 | 0.0 | 0.00 | 0.00 | 0.00 | 40 | 1025.9 |
| 20260906004701 | 23 | 116 | 3.2 | 4.8 | 0.00 | 0.00 | 0.00 | 40 | 1026.0 |
| 20260906004156 | 24 | 163 | 0.0 | 0.0 | 0.00 | 0.00 | 0.00 | 40 | 1026.0 |
| 20260906003652 | 25 | 143 | 1.6 | 1.6 | 0.00 | 0.00 | 0.00 | 39 | 1026.2 |
| 20260906003148 | 25 | 175 | 1.6 | 3.2 | 0.00 | 0.00 | 0.00 | 38 | 1026.0 |
| 20260906002648 | 25 | 159 | 1.6 | 1.6 | 0.00 | 0.00 | 0.00 | 38 | 1025.9 |
| 20260906002142 | 25 | 158 | 1.6 | 1.6 | 0.00 | 0.00 | 0.00 | 37 | 1025.6 |
| 20260906001638 | 26 | 150 | 0.0 | 0.0 | 0.00 | 0.00 | 0.00 | 37 | 1025.8 |
| 20260906001137 | 26 | 218 | 1.6 | 3.2 | 0.00 | 0.00 | 0.00 | 36 | 1025.8 |
| 20260906000633 | 25 | 157 | 0.0 | 0.0 | 0.00 | 0.00 | 0.00 | 37 | 1025.6 |
| 20260906000129 | 25 | 157 | 1.6 | 1.6 | 0.00 | 0.00 | 0.00 | 37 | 1025.5 |
| 20260905235627 | 25 | 141 | 0.0 | 0.0 | 0.00 | 0.00 | 0.00 | 38 | 1025.8 |
| 20260905235123 | 25 | 166 | 1.6 | 1.6 | 0.00 | 0.00 | 0.00 | 38 | 1026.0 |
| 20260905234618 | 25 | 164 | 1.6 | 1.6 | 0.00 | 0.00 | 0.00 | 38 | 1026.0 |
| 20260905234113 | 25 | 156 | 0.0 | 0.0 | 0.00 | 0.00 | 0.00 | 38 | 1025.8 |
| 20260905233608 | 25 | 171 | 1.6 | 1.6 | 0.00 | 0.00 | 0.00 | 38 | 1026.0 |
| 20260905233102 | 25 | 163 | 0.0 | 0.0 | 0.00 | 0.00 | 0.00 | 37 | 1025.8 |
| 20260905232558 | 25 | 129 | 0.0 | 1.6 | 0.00 | 0.00 | 0.00 | 37 | 1025.6 |
| 20260905232053 | 26 | 89 | 6.4 | 8.0 | 0.00 | 0.00 | 0.00 | 36 | 1025.8 |
| 20260905231548 | 26 | 116 | 6.4 | 9.7 | 0.00 | 0.00 | 0.00 | 36 | 1025.6 |
| 20260905231044 | 25 | 167 | 3.2 | 3.2 | 0.00 | 0.00 | 0.00 | 37 | 1025.6 |
| 20260905230544 | 25 | 162 | 1.6 | 1.6 | 0.00 | 0.00 | 0.00 | 37 | 1025.8 |
| 20260905230043 | 26 | 115 | 3.2 | 4.8 | 0.00 | 0.00 | 0.00 | 37 | 1025.9 |
| 20260905225537 | 26 | 71 | 6.4 | 8.0 | 0.00 | 0.00 | 0.00 | 37 | 1025.8 |
| 20260905225033 | 25 | 153 | 1.6 | 1.6 | 0.00 | 0.00 | 0.00 | 40 | 1026.2 |
| 20260905224532 | 24 | 149 | 1.6 | 1.6 | 0.00 | 0.00 | 0.00 | 40 | 1026.2 |
| 20260905224032 | 23 | 162 | 3.2 | 3.2 | 0.00 | 0.00 | 0.00 | 46 | 1026.0 |
| 20260905223530 | 25 | 86 | 1.6 | 4.8 | 0.00 | 0.00 | 0.00 | 41 | 1026.4 |
| 20260905223026 | 25 | 150 | 0.0 | 0.0 | 0.00 | 0.00 | 0.00 | 39 | 1026.3 |
| 20260905222525 | 25 | 160 | 1.6 | 1.6 | 0.00 | 0.00 | 0.00 | 39 | 1026.0 |